Time;durP1;ratioP1;P1;durP2;ratioP2;P2;SDS_P1;SDS_P2;PMS_P1;PMS_P2;Temp;Humidity;BMP_temperature;BMP_pressure;BME280_temperature;BME280_humidity;BME280_pressure;Samples;Min_cycle;Max_cycle;Signal;HPM_P1;HPM_P2
2022/07/24 00:00:18;;;;;;;;;;;;;;;;;;1040449;28;4005;-54
2022/07/24 00:01:06;;;;;;;;;;;;;;;;;;1041257;28;4231;-55
2022/07/24 00:01:44;;;;;;;;;;;;;;;;;;1041234;28;2427;-56
2022/07/24 00:02:14;;;;;;;;;;;;;;;;;;1043468;28;4307;-54
2022/07/24 00:02:44;;;;;;;;;;;;;;;;;;1043738;28;2893;-56
2022/07/24 00:03:14;;;;;;;;;;;;;;;;;;1040898;28;3821;-55
2022/07/24 00:03:45;;;;;;;;;;;;;;;;;;1037670;28;3744;-57
2022/07/24 00:04:15;;;;;;;;;;;;;;;;;;1033088;28;4482;-57
2022/07/24 00:04:46;;;;;;;;;;;;;;;;;;1033381;28;2174;-56
2022/07/24 00:05:16;;;;;;;;;;;;;;;;;;1036190;28;3848;-57
2022/07/24 00:05:46;;;;;;;;;;;;;;;;;;1036322;28;3467;-55
2022/07/24 00:06:17;;;;;;;;;;;;;;;;;;1040817;28;4009;-56
2022/07/24 00:06:47;;;;;;;;;;;;;;;;;;1035594;28;3806;-56
2022/07/24 00:07:17;;;;;;;;;;;;;;;;;;1037198;28;3876;-58
2022/07/24 00:07:48;;;;;;;;;;;;;;;;;;1035424;28;3213;-56
2022/07/24 00:08:18;;;;;;;;;;;;;;;;;;1040040;28;3945;-56
2022/07/24 00:08:48;;;;;;;;;;;;;;;;;;1044518;28;2824;-52
2022/07/24 00:09:19;;;;;;;;;;;;;;;;;;1045458;28;3975;-59
2022/07/24 00:09:49;;;;;;;;;;;;;;;;;;1044702;28;2462;-58
2022/07/24 00:10:19;;;;;;;;;;;;;;;;;;1044144;28;4233;-57
2022/07/24 00:10:50;;;;;;;;;;;;;;;;;;1044549;28;3339;-57
2022/07/24 00:11:20;;;;;;;;;;;;;;;;;;1044408;28;4012;-57
2022/07/24 00:11:50;;;;;;;;;;;;;;;;;;1040403;28;2887;-57
2022/07/24 00:12:20;;;;;;;;;;;;;;;;;;1042140;28;3830;-57
2022/07/24 00:12:51;;;;;;;;;;;;;;;;;;1040765;28;2941;-58
2022/07/24 00:13:21;;;;;;;;;;;;;;;;;;1040717;28;4407;-57
2022/07/24 00:13:52;;;;;;;;;;;;;;;;;;1044710;28;3044;-59
2022/07/24 00:14:22;;;;;;;;;;;;;;;;;;1042747;28;3856;-57
2022/07/24 00:14:53;;;;;;;;;;;;;;;;;;1044154;28;2394;-56
2022/07/24 00:15:23;;;;;;;;;;;;;;;;;;1039355;28;4454;-54
2022/07/24 00:15:53;;;;;;;;;;;;;;;;;;1041534;28;2366;-57
2022/07/24 00:16:23;;;;;;;;;;;;;;;;;;1040298;28;4482;-58
2022/07/24 00:16:54;;;;;;;;;;;;;;;;;;1038561;28;1575;-55
2022/07/24 00:17:24;;;;;;;;;;;;;;;;;;1034580;28;4286;-56
2022/07/24 00:17:54;;;;;;;;;;;;;;;;;;1036303;28;2425;-58
2022/07/24 00:18:25;;;;;;;;;;;;;;;;;;1029615;28;5522;-55
2022/07/24 00:18:55;;;;;;;;;;;;;;;;;;1035463;28;3727;-57
2022/07/24 00:19:26;;;;;;;;;;;;;;;;;;1038603;28;3884;-57
2022/07/24 00:19:56;;;;;;;;;;;;;;;;;;1042012;28;2181;-58
2022/07/24 00:20:26;;;;;;;;;;;;;;;;;;1042166;28;3857;-57
2022/07/24 00:20:57;;;;;;;;;;;;;;;;;;1043922;28;3601;-55
2022/07/24 00:21:27;;;;;;;;;;;;;;;;;;1042790;28;4168;-55
2022/07/24 00:21:59;;;;;;;;;;;;;;;;;;1044013;28;3268;-57
2022/07/24 00:22:29;;;;;;;;;;;;;;;;;;1043197;28;3871;-58
2022/07/24 00:23:00;;;;;;;;;;;;;;;;;;1039881;28;2618;-54
2022/07/24 00:23:30;;;;;;;;;;;;;;;;;;1039425;28;3822;-54
2022/07/24 00:24:00;;;;;;;;;;;;;;;;;;1040902;28;2305;-56
2022/07/24 00:24:31;;;;;;;;;;;;;;;;;;1038342;28;4217;-57
2022/07/24 00:25:01;;;;;;;;;;;;;;;;;;1044377;28;3715;-58
2022/07/24 00:25:32;;;;;;;;;;;;;;;;;;1044609;28;3864;-56
2022/07/24 00:26:02;;;;;;;;;;;;;;;;;;1045410;28;2411;-57
2022/07/24 00:26:33;;;;;;;;;;;;;;;;;;1044155;28;3889;-59
2022/07/24 00:27:03;;;;;;;;;;;;;;;;;;1044083;28;2861;-57
2022/07/24 00:27:33;;;;;;;;;;;;;;;;;;1044671;28;4216;-54
2022/07/24 00:28:04;;;;;;;;;;;;;;;;;;1045154;28;2324;-58
2022/07/24 00:28:34;;;;;;;;;;;;;;;;;;1042305;28;4008;-58
2022/07/24 00:29:04;;;;;;;;;;;;;;;;;;1045034;28;2927;-56
2022/07/24 00:29:34;;;;;;;;;;;;;;;;;;1044542;28;3715;-55
2022/07/24 00:30:05;;;;;;;;;;;;;;;;;;1044122;28;2493;-57
2022/07/24 00:30:37;;;;;;;;;;;;;;;;;;1044777;28;3809;-58
2022/07/24 00:31:13;;;;;;;;;;;;;;;;;;1043494;28;4042;-58
2022/07/24 00:31:44;;;;;;;;;;;;;;;;;;1043996;28;2879;-58
2022/07/24 00:32:14;;;;;;;;;;;;;;;;;;1039761;28;4171;-55
2022/07/24 00:32:44;;;;;;;;;;;;;;;;;;1040936;28;3881;-58
2022/07/24 00:33:14;;;;;;;;;;;;;;;;;;1041548;28;4062;-53
2022/07/24 00:33:45;;;;;;;;;;;;;;;;;;1039476;28;5596;-57
2022/07/24 00:34:15;;;;;;;;;;;;;;;;;;1040248;28;3940;-59
2022/07/24 00:34:46;;;;;;;;;;;;;;;;;;1040931;28;2173;-56
2022/07/24 00:35:17;;;;;;;;;;;;;;;;;;1041568;28;3918;-53
2022/07/24 00:35:48;;;;;;;;;;;;;;;;;;1040931;28;2863;-57
2022/07/24 00:36:18;;;;;;;;;;;;;;;;;;1045087;28;3988;-58
2022/07/24 00:36:49;;;;;;;;;;;;;;;;;;1044884;28;2510;-57
2022/07/24 00:37:27;;;;;;;;;;;;;;;;;;1043923;28;3944;-57
2022/07/24 00:37:57;;;;;;;;;;;;;;;;;;1045234;28;2832;-58
2022/07/24 00:38:27;;;;;;;;;;;;;;;;;;1044807;28;4263;-58
2022/07/24 00:38:58;;;;;;;;;;;;;;;;;;1044406;28;3768;-59
2022/07/24 00:39:28;;;;;;;;;;;;;;;;;;1043901;28;4051;-57
2022/07/24 00:39:58;;;;;;;;;;;;;;;;;;1044501;28;3028;-58
2022/07/24 00:40:29;;;;;;;;;;;;;;;;;;1044764;28;3904;-57
2022/07/24 00:41:00;;;;;;;;;;;;;;;;;;1043363;28;2616;-56
2022/07/24 00:41:30;;;;;;;;;;;;;;;;;;1044052;28;3788;-58
2022/07/24 00:42:00;;;;;;;;;;;;;;;;;;1045504;28;2447;-58
2022/07/24 00:42:30;;;;;;;;;;;;;;;;;;1042992;28;3778;-56
2022/07/24 00:43:02;;;;;;;;;;;;;;;;;;1044521;28;2895;-58
2022/07/24 00:43:32;;;;;;;;;;;;;;;;;;1044691;28;4036;-57
2022/07/24 00:44:02;;;;;;;;;;;;;;;;;;1043997;28;3668;-57
2022/07/24 00:44:33;;;;;;;;;;;;;;;;;;1043568;28;4376;-59
2022/07/24 00:45:04;;;;;;;;;;;;;;;;;;1043703;28;2511;-57
2022/07/24 00:45:35;;;;;;;;;;;;;;;;;;1043559;28;4394;-58
2022/07/24 00:46:05;;;;;;;;;;;;;;;;;;1044598;28;2737;-55
2022/07/24 00:46:36;;;;;;;;;;;;;;;;;;1042976;28;3710;-56
2022/07/24 00:47:06;;;;;;;;;;;;;;;;;;1044798;28;4259;-57
2022/07/24 00:47:37;;;;;;;;;;;;;;;;;;1043979;28;2697;-57
2022/07/24 00:48:07;;;;;;;;;;;;;;;;;;1044764;28;4460;-57
2022/07/24 00:48:37;;;;;;;;;;;;;;;;;;1043355;28;3478;-56
2022/07/24 00:49:10;;;;;;;;;;;;;;;;;;1043764;28;4009;-58
2022/07/24 00:49:40;;;;;;;;;;;;;;;;;;1044653;28;3462;-57
2022/07/24 00:50:11;;;;;;;;;;;;;;;;;;1043698;28;3966;-55
2022/07/24 00:50:42;;;;;;;;;;;;;;;;;;1045474;28;2259;-56
2022/07/24 00:51:13;;;;;;;;;;;;;;;;;;1043928;28;3831;-56
2022/07/24 00:51:44;;;;;;;;;;;;;;;;;;1045623;28;4052;-56
2022/07/24 00:52:14;;;;;;;;;;;;;;;;;;1042139;28;3928;-55
2022/07/24 00:52:45;;;;;;;;;;;;;;;;;;1045510;28;3892;-55
2022/07/24 00:53:15;;;;;;;;;;;;;;;;;;1043527;28;4093;-57
2022/07/24 00:53:46;;;;;;;;;;;;;;;;;;1044488;28;3854;-56
2022/07/24 00:54:18;;;;;;;;;;;;;;;;;;1044232;28;3943;-57
2022/07/24 00:54:48;;;;;;;;;;;;;;;;;;1045595;28;2890;-58
2022/07/24 00:55:18;;;;;;;;;;;;;;;;;;1043569;28;4189;-56
2022/07/24 00:55:49;;;;;;;;;;;;;;;;;;1045323;28;2309;-58
2022/07/24 00:56:19;;;;;;;;;;;;;;;;;;1044777;28;3902;-57
2022/07/24 00:56:51;;;;;;;;;;;;;;;;;;1044201;28;2945;-58
2022/07/24 00:57:21;;;;;;;;;;;;;;;;;;1043977;28;4377;-58
2022/07/24 00:57:51;;;;;;;;;;;;;;;;;;1044901;28;2266;-55
2022/07/24 00:58:22;;;;;;;;;;;;;;;;;;1044322;28;3788;-57
2022/07/24 00:58:52;;;;;;;;;;;;;;;;;;1043896;28;4228;-55
2022/07/24 00:59:23;;;;;;;;;;;;;;;;;;1043820;28;4280;-57
2022/07/24 00:59:53;;;;;;;;;;;;;;;;;;1045031;28;2952;-56
2022/07/24 01:00:23;;;;;;;;;;;;;;;;;;1042454;28;3982;-59
2022/07/24 01:00:54;;;;;;;;;;;;;;;;;;1042616;28;3783;-58
2022/07/24 01:01:24;;;;;;;;;;;;;;;;;;1042601;28;4046;-58
2022/07/24 01:01:55;;;;;;;;;;;;;;;;;;1043246;28;3629;-57
2022/07/24 01:02:25;;;;;;;;;;;;;;;;;;1041822;28;4453;-58
2022/07/24 01:02:56;;;;;;;;;;;;;;;;;;1044590;28;3650;-57
2022/07/24 01:03:26;;;;;;;;;;;;;;;;;;1043443;28;3952;-57
2022/07/24 01:03:56;;;;;;;;;;;;;;;;;;1043997;28;3294;-56
2022/07/24 01:04:27;;;;;;;;;;;;;;;;;;1042541;28;4283;-59
2022/07/24 01:05:04;;;;;;;;;;;;;;;;;;1045348;28;3634;-57
2022/07/24 01:05:34;;;;;;;;;;;;;;;;;;1045356;28;3744;-57
2022/07/24 01:06:11;;;;;;;;;;;;;;;;;;1044703;28;3171;-58
2022/07/24 01:06:42;;;;;;;;;;;;;;;;;;1044713;28;3789;-57
2022/07/24 01:07:12;;;;;;;;;;;;;;;;;;1043933;28;4260;-57
2022/07/24 01:07:43;;;;;;;;;;;;;;;;;;1045262;28;1998;-58
2022/07/24 01:08:13;;;;;;;;;;;;;;;;;;1038981;28;3954;-59
2022/07/24 01:08:44;;;;;;;;;;;;;;;;;;1039499;28;3512;-56
2022/07/24 01:09:14;;;;;;;;;;;;;;;;;;1039003;28;4089;-59
2022/07/24 01:09:45;;;;;;;;;;;;;;;;;;1038634;28;3288;-56
2022/07/24 01:10:15;;;;;;;;;;;;;;;;;;1042878;28;4453;-58
2022/07/24 01:10:45;;;;;;;;;;;;;;;;;;1044744;28;3123;-58
2022/07/24 01:11:16;;;;;;;;;;;;;;;;;;1044116;28;4001;-57
2022/07/24 01:11:46;;;;;;;;;;;;;;;;;;1044478;28;3031;-54
2022/07/24 01:12:17;;;;;;;;;;;;;;;;;;1042845;28;4062;-56
2022/07/24 01:12:47;;;;;;;;;;;;;;;;;;1040224;28;4067;-59
2022/07/24 01:13:18;;;;;;;;;;;;;;;;;;1043382;28;3802;-58
2022/07/24 01:13:48;;;;;;;;;;;;;;;;;;1043728;28;3214;-56
2022/07/24 01:14:19;;;;;;;;;;;;;;;;;;1043749;28;4223;-56
2022/07/24 01:14:49;;;;;;;;;;;;;;;;;;1038371;28;3466;-57
2022/07/24 01:15:19;;;;;;;;;;;;;;;;;;1039262;28;3950;-54
2022/07/24 01:15:49;;;;;;;;;;;;;;;;;;1040201;28;2660;-59
2022/07/24 01:16:20;;;;;;;;;;;;;;;;;;1040984;28;4448;-58
2022/07/24 01:16:50;;;;;;;;;;;;;;;;;;1042678;28;3207;-54
2022/07/24 01:17:20;;;;;;;;;;;;;;;;;;1041969;28;3847;-57
2022/07/24 01:17:51;;;;;;;;;;;;;;;;;;1045278;28;3238;-59
2022/07/24 01:18:21;;;;;;;;;;;;;;;;;;1043261;28;3912;-57
2022/07/24 01:18:51;;;;;;;;;;;;;;;;;;1040971;28;4151;-56
2022/07/24 01:19:21;;;;;;;;;;;;;;;;;;1041581;28;3800;-58
2022/07/24 01:19:52;;;;;;;;;;;;;;;;;;1040933;28;3512;-59
2022/07/24 01:20:22;;;;;;;;;;;;;;;;;;1040269;28;4384;-56
2022/07/24 01:20:52;;;;;;;;;;;;;;;;;;1043145;28;3953;-56
2022/07/24 01:21:22;;;;;;;;;;;;;;;;;;1043651;28;3938;-58
2022/07/24 01:21:53;;;;;;;;;;;;;;;;;;1043515;28;2768;-56
2022/07/24 01:22:24;;;;;;;;;;;;;;;;;;1044014;28;4029;-57
2022/07/24 01:22:54;;;;;;;;;;;;;;;;;;1043682;28;3653;-56
2022/07/24 01:23:24;;;;;;;;;;;;;;;;;;1044228;28;4053;-58
2022/07/24 01:23:55;;;;;;;;;;;;;;;;;;1043605;28;3056;-58
2022/07/24 01:24:25;;;;;;;;;;;;;;;;;;1043786;28;3810;-55
2022/07/24 01:24:55;;;;;;;;;;;;;;;;;;1043465;28;3706;-59
2022/07/24 01:25:26;;;;;;;;;;;;;;;;;;1041239;28;3771;-59
2022/07/24 01:25:57;;;;;;;;;;;;;;;;;;1040404;28;2315;-58
2022/07/24 01:26:27;;;;;;;;;;;;;;;;;;1041081;28;3935;-58
2022/07/24 01:26:57;;;;;;;;;;;;;;;;;;1041048;28;2816;-59
2022/07/24 01:27:27;;;;;;;;;;;;;;;;;;1043896;28;3926;-59
2022/07/24 01:27:58;;;;;;;;;;;;;;;;;;1044292;28;2816;-58
2022/07/24 01:28:28;;;;;;;;;;;;;;;;;;1043135;28;4071;-58
2022/07/24 01:28:58;;;;;;;;;;;;;;;;;;1044205;28;2906;-57
2022/07/24 01:29:28;;;;;;;;;;;;;;;;;;1042775;28;4239;-56
2022/07/24 01:29:59;;;;;;;;;;;;;;;;;;1043318;28;3849;-58
2022/07/24 01:30:29;;;;;;;;;;;;;;;;;;1042003;28;3998;-57
2022/07/24 01:31:00;;;;;;;;;;;;;;;;;;1044016;28;2562;-57
2022/07/24 01:31:44;;;;;;;;;;;;;;;;;;1043897;28;3760;-58
2022/07/24 01:32:14;;;;;;;;;;;;;;;;;;1044314;28;4361;-57
2022/07/24 01:32:44;;;;;;;;;;;;;;;;;;1038900;28;2713;-57
2022/07/24 01:33:15;;;;;;;;;;;;;;;;;;1038162;28;3808;-58
2022/07/24 01:33:45;;;;;;;;;;;;;;;;;;1037949;28;3711;-56
2022/07/24 01:34:15;;;;;;;;;;;;;;;;;;1039710;28;4014;-54
2022/07/24 01:34:46;;;;;;;;;;;;;;;;;;1044896;28;2396;-58
2022/07/24 01:35:16;;;;;;;;;;;;;;;;;;1044570;28;3812;-55
2022/07/24 01:35:46;;;;;;;;;;;;;;;;;;1042857;28;3879;-57
2022/07/24 01:36:16;;;;;;;;;;;;;;;;;;1043187;28;3790;-57
2022/07/24 01:36:54;;;;;;;;;;;;;;;;;;1040518;28;3875;-58
2022/07/24 01:37:24;;;;;;;;;;;;;;;;;;1040978;28;3930;-55
2022/07/24 01:37:55;;;;;;;;;;;;;;;;;;1034634;28;3147;-60
2022/07/24 01:38:25;;;;;;;;;;;;;;;;;;1034163;28;4158;-56
2022/07/24 01:38:55;;;;;;;;;;;;;;;;;;1040539;28;3181;-59
2022/07/24 01:39:26;;;;;;;;;;;;;;;;;;1039415;28;3913;-57
2022/07/24 01:39:56;;;;;;;;;;;;;;;;;;1043599;28;3972;-59
2022/07/24 01:40:26;;;;;;;;;;;;;;;;;;1044054;28;4267;-56
2022/07/24 01:40:56;;;;;;;;;;;;;;;;;;1045088;28;3102;-59
2022/07/24 01:41:27;;;;;;;;;;;;;;;;;;1043517;28;3901;-55
2022/07/24 01:41:57;;;;;;;;;;;;;;;;;;1044125;28;2604;-58
2022/07/24 01:42:27;;;;;;;;;;;;;;;;;;1042306;28;3996;-59
2022/07/24 01:42:57;;;;;;;;;;;;;;;;;;1042990;28;3360;-58
2022/07/24 01:43:28;;;;;;;;;;;;;;;;;;1041713;28;3971;-54
2022/07/24 01:43:58;;;;;;;;;;;;;;;;;;1043943;28;3341;-57
2022/07/24 01:44:28;;;;;;;;;;;;;;;;;;1044791;28;3820;-57
2022/07/24 01:44:59;;;;;;;;;;;;;;;;;;1045321;28;3394;-59
2022/07/24 01:45:30;;;;;;;;;;;;;;;;;;1042920;28;3973;-55
2022/07/24 01:46:00;;;;;;;;;;;;;;;;;;1044314;28;3721;-57
2022/07/24 01:46:31;;;;;;;;;;;;;;;;;;1043974;28;4318;-56
2022/07/24 01:47:02;;;;;;;;;;;;;;;;;;1045545;28;3219;-57
2022/07/24 01:47:32;;;;;;;;;;;;;;;;;;1038438;28;3844;-57
2022/07/24 01:48:03;;;;;;;;;;;;;;;;;;1039576;28;3614;-54
2022/07/24 01:48:33;;;;;;;;;;;;;;;;;;1040226;28;3840;-57
2022/07/24 01:49:03;;;;;;;;;;;;;;;;;;1040082;28;2424;-55
2022/07/24 01:49:34;;;;;;;;;;;;;;;;;;1043319;28;3970;-55
2022/07/24 01:50:04;;;;;;;;;;;;;;;;;;1045323;28;2286;-57
2022/07/24 01:50:35;;;;;;;;;;;;;;;;;;1039621;28;4425;-55
2022/07/24 01:51:05;;;;;;;;;;;;;;;;;;1039016;28;4220;-57
2022/07/24 01:51:36;;;;;;;;;;;;;;;;;;1040762;28;3892;-55
2022/07/24 01:52:06;;;;;;;;;;;;;;;;;;1035132;28;3836;-58
2022/07/24 01:52:37;;;;;;;;;;;;;;;;;;1039366;28;3804;-58
2022/07/24 01:53:07;;;;;;;;;;;;;;;;;;1036174;28;4081;-57
2022/07/24 01:53:37;;;;;;;;;;;;;;;;;;1035154;28;3756;-56
2022/07/24 01:54:07;;;;;;;;;;;;;;;;;;1040096;28;3912;-58
2022/07/24 01:54:38;;;;;;;;;;;;;;;;;;1041151;28;1632;-56
2022/07/24 01:55:08;;;;;;;;;;;;;;;;;;1043445;28;4638;-57
2022/07/24 01:55:39;;;;;;;;;;;;;;;;;;1043726;28;3172;-57
2022/07/24 01:56:09;;;;;;;;;;;;;;;;;;1043847;28;4073;-55
2022/07/24 01:56:39;;;;;;;;;;;;;;;;;;1045138;28;1739;-56
2022/07/24 01:57:10;;;;;;;;;;;;;;;;;;1045011;28;4078;-58
2022/07/24 01:57:40;;;;;;;;;;;;;;;;;;1044696;28;1539;-56
2022/07/24 01:58:10;;;;;;;;;;;;;;;;;;1044641;28;3803;-58
2022/07/24 01:58:40;;;;;;;;;;;;;;;;;;1043691;28;3095;-57
2022/07/24 01:59:11;;;;;;;;;;;;;;;;;;1044625;28;3970;-57
2022/07/24 01:59:41;;;;;;;;;;;;;;;;;;1044789;28;1905;-57
2022/07/24 02:00:12;;;;;;;;;;;;;;;;;;1044028;28;4043;-55
2022/07/24 02:00:42;;;;;;;;;;;;;;;;;;1043592;28;2369;-57
2022/07/24 02:01:13;;;;;;;;;;;;;;;;;;1043953;28;3833;-56
2022/07/24 02:01:43;;;;;;;;;;;;;;;;;;1043296;28;3258;-57
2022/07/24 02:02:13;;;;;;;;;;;;;;;;;;1039473;28;3907;-56
2022/07/24 02:02:44;;;;;;;;;;;;;;;;;;1038774;28;3807;-57
2022/07/24 02:03:14;;;;;;;;;;;;;;;;;;1039110;28;4411;-58
2022/07/24 02:03:44;;;;;;;;;;;;;;;;;;1039860;28;2372;-57
2022/07/24 02:04:14;;;;;;;;;;;;;;;;;;1043725;28;3916;-55
2022/07/24 02:04:45;;;;;;;;;;;;;;;;;;1044947;28;2876;-58
2022/07/24 02:05:15;;;;;;;;;;;;;;;;;;1044038;28;3932;-59
2022/07/24 02:05:46;;;;;;;;;;;;;;;;;;1044590;28;3195;-57
2022/07/24 02:06:16;;;;;;;;;;;;;;;;;;1044028;28;4169;-56
2022/07/24 02:06:47;;;;;;;;;;;;;;;;;;1044359;28;3674;-59
2022/07/24 02:07:17;;;;;;;;;;;;;;;;;;1043947;28;4014;-58
2022/07/24 02:07:53;;;;;;;;;;;;;;;;;;1044687;28;2306;-58
2022/07/24 02:08:23;;;;;;;;;;;;;;;;;;1044472;28;3796;-56
2022/07/24 02:08:54;;;;;;;;;;;;;;;;;;1044449;28;3231;-57
2022/07/24 02:09:24;;;;;;;;;;;;;;;;;;1044111;28;4060;-56
2022/07/24 02:09:54;;;;;;;;;;;;;;;;;;1044957;28;2368;-56
2022/07/24 02:10:26;;;;;;;;;;;;;;;;;;1044297;28;4416;-58
2022/07/24 02:10:56;;;;;;;;;;;;;;;;;;1042909;28;2322;-57
2022/07/24 02:11:26;;;;;;;;;;;;;;;;;;1043616;28;3880;-58
2022/07/24 02:11:57;;;;;;;;;;;;;;;;;;1042475;28;3962;-56
2022/07/24 02:12:27;;;;;;;;;;;;;;;;;;1044392;28;4195;-57
2022/07/24 02:12:57;;;;;;;;;;;;;;;;;;1045163;28;3090;-57
2022/07/24 02:13:28;;;;;;;;;;;;;;;;;;1045167;28;4052;-58
2022/07/24 02:14:06;;;;;;;;;;;;;;;;;;1043388;28;4483;-59
2022/07/24 02:14:36;;;;;;;;;;;;;;;;;;1043396;28;3738;-57
2022/07/24 02:15:07;;;;;;;;;;;;;;;;;;1043447;28;3919;-60
2022/07/24 02:15:37;;;;;;;;;;;;;;;;;;1044689;28;1582;-57
2022/07/24 02:16:07;;;;;;;;;;;;;;;;;;1045212;28;3818;-56
2022/07/24 02:16:37;;;;;;;;;;;;;;;;;;1045085;28;2862;-58
2022/07/24 02:17:08;;;;;;;;;;;;;;;;;;1041891;28;3863;-58
2022/07/24 02:17:38;;;;;;;;;;;;;;;;;;1045145;28;2465;-58
2022/07/24 02:18:08;;;;;;;;;;;;;;;;;;1042849;28;5623;-57
2022/07/24 02:18:39;;;;;;;;;;;;;;;;;;1040612;28;2989;-59
2022/07/24 02:19:09;;;;;;;;;;;;;;;;;;1037857;28;4502;-59
2022/07/24 02:19:39;;;;;;;;;;;;;;;;;;1041381;28;3011;-56
2022/07/24 02:20:10;;;;;;;;;;;;;;;;;;1039823;28;4269;-59
2022/07/24 02:20:40;;;;;;;;;;;;;;;;;;1044767;28;3530;-56
2022/07/24 02:21:10;;;;;;;;;;;;;;;;;;1038915;28;4124;-56
2022/07/24 02:21:41;;;;;;;;;;;;;;;;;;1037860;28;1590;-57
2022/07/24 02:22:11;;;;;;;;;;;;;;;;;;1032146;28;4080;-56
2022/07/24 02:22:42;;;;;;;;;;;;;;;;;;1037721;28;3071;-55
2022/07/24 02:23:17;;;;;;;;;;;;;;;;;;1040023;28;4010;-57
2022/07/24 02:23:47;;;;;;;;;;;;;;;;;;1045786;28;3960;-56
2022/07/24 02:24:18;;;;;;;;;;;;;;;;;;1044354;28;3970;-57
2022/07/24 02:24:48;;;;;;;;;;;;;;;;;;1046904;28;2254;-55
2022/07/24 02:25:18;;;;;;;;;;;;;;;;;;1043369;28;3976;-55
2022/07/24 02:25:49;;;;;;;;;;;;;;;;;;1046732;28;2312;-57
2022/07/24 02:26:19;;;;;;;;;;;;;;;;;;1044371;28;4242;-56
2022/07/24 02:26:50;;;;;;;;;;;;;;;;;;1046558;28;2227;-56
2022/07/24 02:27:20;;;;;;;;;;;;;;;;;;1044625;28;3963;-55
2022/07/24 02:27:51;;;;;;;;;;;;;;;;;;1045560;28;3594;-54
2022/07/24 02:28:21;;;;;;;;;;;;;;;;;;1044601;28;3942;-56
2022/07/24 02:28:51;;;;;;;;;;;;;;;;;;1045419;28;3893;-57
2022/07/24 02:29:21;;;;;;;;;;;;;;;;;;1041706;28;4021;-55
2022/07/24 02:29:52;;;;;;;;;;;;;;;;;;1045570;28;3340;-57
2022/07/24 02:30:23;;;;;;;;;;;;;;;;;;1042963;28;4268;-55
2022/07/24 02:30:54;;;;;;;;;;;;;;;;;;1044784;28;3848;-58
2022/07/24 02:31:30;;;;;;;;;;;;;;;;;;1043141;28;4291;-57
2022/07/24 02:32:07;;;;;;;;;;;;;;;;;;1045897;28;2500;-56
2022/07/24 02:32:45;;;;;;;;;;;;;;;;;;1045281;28;3950;-59
2022/07/24 02:33:16;;;;;;;;;;;;;;;;;;1044350;28;4106;-54
2022/07/24 02:33:46;;;;;;;;;;;;;;;;;;1045580;28;3162;-58
2022/07/24 02:34:16;;;;;;;;;;;;;;;;;;1044703;28;4108;-57
2022/07/24 02:34:47;;;;;;;;;;;;;;;;;;1045785;28;3845;-56
2022/07/24 02:35:17;;;;;;;;;;;;;;;;;;1042226;28;4620;-59
2022/07/24 02:35:47;;;;;;;;;;;;;;;;;;1041972;28;2405;-59
2022/07/24 02:36:18;;;;;;;;;;;;;;;;;;1041435;28;4439;-55
2022/07/24 02:36:48;;;;;;;;;;;;;;;;;;1042199;28;2092;-58
2022/07/24 02:37:18;;;;;;;;;;;;;;;;;;1045723;28;4301;-58
2022/07/24 02:37:48;;;;;;;;;;;;;;;;;;1041080;28;2933;-55
2022/07/24 02:38:20;;;;;;;;;;;;;;;;;;1042469;28;4089;-56
2022/07/24 02:38:51;;;;;;;;;;;;;;;;;;1037706;28;2376;-56
2022/07/24 02:39:21;;;;;;;;;;;;;;;;;;1038323;28;3886;-58
2022/07/24 02:39:51;;;;;;;;;;;;;;;;;;1036083;28;3976;-55
2022/07/24 02:40:22;;;;;;;;;;;;;;;;;;1032655;28;3926;-59
2022/07/24 02:40:52;;;;;;;;;;;;;;;;;;1038126;28;3822;-56
2022/07/24 02:41:22;;;;;;;;;;;;;;;;;;1036653;28;3909;-60
2022/07/24 02:41:53;;;;;;;;;;;;;;;;;;1039803;28;3353;-56
2022/07/24 02:42:23;;;;;;;;;;;;;;;;;;1039694;28;4095;-58
2022/07/24 02:42:53;;;;;;;;;;;;;;;;;;1041011;28;3982;-55
2022/07/24 02:43:24;;;;;;;;;;;;;;;;;;1036320;28;4017;-55
2022/07/24 02:43:54;;;;;;;;;;;;;;;;;;1035352;28;4129;-57
2022/07/24 02:44:25;;;;;;;;;;;;;;;;;;1041126;28;3901;-56
2022/07/24 02:44:55;;;;;;;;;;;;;;;;;;1040354;28;2797;-58
2022/07/24 02:45:25;;;;;;;;;;;;;;;;;;1044015;28;3950;-58
2022/07/24 02:45:55;;;;;;;;;;;;;;;;;;1044344;28;2089;-59
2022/07/24 02:46:26;;;;;;;;;;;;;;;;;;1044499;28;4053;-59
2022/07/24 02:46:56;;;;;;;;;;;;;;;;;;1044083;28;2238;-59
2022/07/24 02:47:26;;;;;;;;;;;;;;;;;;1044795;28;4407;-57
2022/07/24 02:47:57;;;;;;;;;;;;;;;;;;1044523;28;2610;-58
2022/07/24 02:48:27;;;;;;;;;;;;;;;;;;1042382;28;3804;-57
2022/07/24 02:48:58;;;;;;;;;;;;;;;;;;1042208;28;2414;-59
2022/07/24 02:49:28;;;;;;;;;;;;;;;;;;1037483;28;4411;-57
2022/07/24 02:49:58;;;;;;;;;;;;;;;;;;1036722;28;3762;-56
2022/07/24 02:50:30;;;;;;;;;;;;;;;;;;1036658;28;4460;-56
2022/07/24 02:51:00;;;;;;;;;;;;;;;;;;1040841;28;2562;-56
2022/07/24 02:51:31;;;;;;;;;;;;;;;;;;1044065;28;4475;-57
2022/07/24 02:52:01;;;;;;;;;;;;;;;;;;1045234;28;2298;-59
2022/07/24 02:52:32;;;;;;;;;;;;;;;;;;1043512;28;3816;-57
2022/07/24 02:53:02;;;;;;;;;;;;;;;;;;1044550;28;2952;-59
2022/07/24 02:53:32;;;;;;;;;;;;;;;;;;1044814;28;3834;-56
2022/07/24 02:54:03;;;;;;;;;;;;;;;;;;1045054;28;3413;-55
2022/07/24 02:54:33;;;;;;;;;;;;;;;;;;1043792;28;3818;-58
2022/07/24 02:55:03;;;;;;;;;;;;;;;;;;1039562;28;2530;-55
2022/07/24 02:55:34;;;;;;;;;;;;;;;;;;1039154;28;3787;-56
2022/07/24 02:56:04;;;;;;;;;;;;;;;;;;1039828;28;3304;-58
2022/07/24 02:56:34;;;;;;;;;;;;;;;;;;1039405;28;3945;-58
2022/07/24 02:57:05;;;;;;;;;;;;;;;;;;1041444;28;2457;-59
2022/07/24 02:57:36;;;;;;;;;;;;;;;;;;1040968;28;4077;-59
2022/07/24 02:58:06;;;;;;;;;;;;;;;;;;1040799;28;3838;-58
2022/07/24 02:58:37;;;;;;;;;;;;;;;;;;1041760;28;3685;-57
2022/07/24 02:59:07;;;;;;;;;;;;;;;;;;1044948;28;3842;-54
2022/07/24 02:59:37;;;;;;;;;;;;;;;;;;1043967;28;3121;-58
2022/07/24 03:00:09;;;;;;;;;;;;;;;;;;1043364;28;4323;-59
2022/07/24 03:00:40;;;;;;;;;;;;;;;;;;1045515;28;2832;-55
2022/07/24 03:01:10;;;;;;;;;;;;;;;;;;1044819;28;4099;-57
2022/07/24 03:01:40;;;;;;;;;;;;;;;;;;1043897;28;2946;-58
2022/07/24 03:02:11;;;;;;;;;;;;;;;;;;1043446;28;3996;-57
2022/07/24 03:02:41;;;;;;;;;;;;;;;;;;1044816;28;2935;-59
2022/07/24 03:03:12;;;;;;;;;;;;;;;;;;1043320;28;3883;-56
2022/07/24 03:03:42;;;;;;;;;;;;;;;;;;1046766;28;1750;-58
2022/07/24 03:04:12;;;;;;;;;;;;;;;;;;1044215;28;4488;-58
2022/07/24 03:04:43;;;;;;;;;;;;;;;;;;1045130;28;3780;-54
2022/07/24 03:05:13;;;;;;;;;;;;;;;;;;1044312;28;3892;-58
2022/07/24 03:05:44;;;;;;;;;;;;;;;;;;1046435;28;1592;-57
2022/07/24 03:06:14;;;;;;;;;;;;;;;;;;1044308;28;3831;-56
2022/07/24 03:06:44;;;;;;;;;;;;;;;;;;1045479;28;2577;-58
2022/07/24 03:07:14;;;;;;;;;;;;;;;;;;1043644;28;3944;-58
2022/07/24 03:07:52;;;;;;;;;;;;;;;;;;1039432;28;3005;-59
2022/07/24 03:08:22;;;;;;;;;;;;;;;;;;1035744;28;3921;-55
2022/07/24 03:08:52;;;;;;;;;;;;;;;;;;1034790;28;3741;-59
2022/07/24 03:09:23;;;;;;;;;;;;;;;;;;1037342;28;4052;-58
2022/07/24 03:09:53;;;;;;;;;;;;;;;;;;1040448;28;3753;-56
2022/07/24 03:10:23;;;;;;;;;;;;;;;;;;1044311;28;4046;-57
2022/07/24 03:10:53;;;;;;;;;;;;;;;;;;1040647;28;2925;-57
2022/07/24 03:11:24;;;;;;;;;;;;;;;;;;1039410;28;4397;-56
2022/07/24 03:11:54;;;;;;;;;;;;;;;;;;1041061;28;3974;-57
2022/07/24 03:12:25;;;;;;;;;;;;;;;;;;1035740;28;4037;-57
2022/07/24 03:12:55;;;;;;;;;;;;;;;;;;1042494;28;3202;-56
2022/07/24 03:13:25;;;;;;;;;;;;;;;;;;1040046;28;3912;-57
2022/07/24 03:13:55;;;;;;;;;;;;;;;;;;1041056;28;3243;-56
2022/07/24 03:14:26;;;;;;;;;;;;;;;;;;1043070;28;4070;-57
2022/07/24 03:14:56;;;;;;;;;;;;;;;;;;1042272;28;4006;-58
2022/07/24 03:15:26;;;;;;;;;;;;;;;;;;1040245;28;4057;-56
2022/07/24 03:15:56;;;;;;;;;;;;;;;;;;1039039;28;4393;-59
2022/07/24 03:16:27;;;;;;;;;;;;;;;;;;1040747;28;3805;-58
2022/07/24 03:16:57;;;;;;;;;;;;;;;;;;1042259;28;3128;-57
2022/07/24 03:17:27;;;;;;;;;;;;;;;;;;1042613;28;4085;-56
2022/07/24 03:17:58;;;;;;;;;;;;;;;;;;1045628;28;2711;-58
2022/07/24 03:18:28;;;;;;;;;;;;;;;;;;1044067;28;4155;-57
2022/07/24 03:18:58;;;;;;;;;;;;;;;;;;1046479;28;2369;-56
2022/07/24 03:19:28;;;;;;;;;;;;;;;;;;1043784;28;4425;-59
2022/07/24 03:19:59;;;;;;;;;;;;;;;;;;1043354;28;3631;-58
2022/07/24 03:20:29;;;;;;;;;;;;;;;;;;1043311;28;3778;-58
2022/07/24 03:20:59;;;;;;;;;;;;;;;;;;1034703;28;3721;-59
2022/07/24 03:21:30;;;;;;;;;;;;;;;;;;1034516;28;4382;-58
2022/07/24 03:22:00;;;;;;;;;;;;;;;;;;1035948;28;2846;-58
2022/07/24 03:22:30;;;;;;;;;;;;;;;;;;1035325;28;4539;-57
2022/07/24 03:23:00;;;;;;;;;;;;;;;;;;1044375;28;3993;-55
2022/07/24 03:23:31;;;;;;;;;;;;;;;;;;1043494;28;3947;-58
2022/07/24 03:24:01;;;;;;;;;;;;;;;;;;1039678;28;4807;-57
2022/07/24 03:24:31;;;;;;;;;;;;;;;;;;1039994;28;4083;-56
2022/07/24 03:25:02;;;;;;;;;;;;;;;;;;1040410;28;4045;-57
2022/07/24 03:25:32;;;;;;;;;;;;;;;;;;1039338;28;3902;-59
2022/07/24 03:26:02;;;;;;;;;;;;;;;;;;1035425;28;3320;-58
2022/07/24 03:26:32;;;;;;;;;;;;;;;;;;1034887;28;3786;-56
2022/07/24 03:27:03;;;;;;;;;;;;;;;;;;1036640;28;2625;-58
2022/07/24 03:27:33;;;;;;;;;;;;;;;;;;1035550;28;3837;-55
2022/07/24 03:28:03;;;;;;;;;;;;;;;;;;1038756;28;2496;-58
2022/07/24 03:28:34;;;;;;;;;;;;;;;;;;1038916;28;4341;-59
2022/07/24 03:29:04;;;;;;;;;;;;;;;;;;1039954;28;3000;-56
2022/07/24 03:29:35;;;;;;;;;;;;;;;;;;1037038;28;5148;-56
2022/07/24 03:30:06;;;;;;;;;;;;;;;;;;1039026;28;3665;-57
2022/07/24 03:30:36;;;;;;;;;;;;;;;;;;1044084;28;4608;-55
2022/07/24 03:31:13;;;;;;;;;;;;;;;;;;1042176;28;3836;-58
2022/07/24 03:31:50;;;;;;;;;;;;;;;;;;1039377;28;3837;-59
2022/07/24 03:32:28;;;;;;;;;;;;;;;;;;1036223;28;3963;-55
2022/07/24 03:32:58;;;;;;;;;;;;;;;;;;1035401;28;3098;-58
2022/07/24 03:33:28;;;;;;;;;;;;;;;;;;1035638;28;3971;-54